Terminal Aerodrome Forecast
Issued by NWS Bismarck, ND

Home | Current Version | Previous Version | Text Only | Print | Product List | Glossary On
Versions: 1 2 3 4 5 6 7 8 9 10 11 12 13 14 15 16 17 18 19
000
FTUS43 KBIS 202300
TAFISN
TAF
KISN 202324Z 2100/2124 35005KT P6SM BKN070
     FM210500 01004KT P6SM BKN120
     FM210600 36004KT P6SM SCT130
     FM211900 36006KT P6SM BKN060=

USA.gov is the U.S. government's official web portal to all federal, state and local government web resources and services.